AirNav   Pilot Hours Calculator
 
 1463 users online  

DC04 Spirit of Washington Heliport
Washington, District of Columbia, USA

GOING TO WASHINGTON?


FAA INFORMATION EFFECTIVE 07 NOVEMBER 2019

Location

FAA Identifier: DC04
Lat/Long: 38-52-27.4040N 077-01-16.9150W
38-52.456733N 077-01.281917W
38.8742789,-77.0213653
(estimated)
Elevation: 15 ft. / 5 m (estimated)
Variation: 09W (1985)
Time zone: UTC -5 (UTC -4 during Daylight Saving Time)
Zip code: 20024

Heliport Operations

Heliport use: Private use. Permission required prior to landing
Activation date: 10/1970
Control tower: no
ARTCC: WASHINGTON CENTER
FSS: LEESBURG FLIGHT SERVICE STATION
Attendance: UNATNDD
Wind indicator: no
Segmented circle: no

Heliport Communications

WX ASOS at DCA (1.6 nm SW): 132.65 (703-412-8140)
WX AWOS-3 at CGS (8 nm NE): 121.225 (301-864-5497)
WX AWOS-3 at FME (18 nm NE): 123.925
WX AWOS-3PT at GAI (19 nm N): 128.275 (301-977-2971)

Nearby radio navigation aids

VOR radial/distance  VOR name  Freq  Var
DCAr047/1.1WASHINGTON VOR/DME111.0009W
ADWr309/8.3ANDREWS VORTAC113.1010W
OTTr318/16.4NOTTINGHAM VORTAC113.7010W
AMLr108/21.1ARMEL VOR/DME113.5008W
BALr234/24.5BALTIMORE VORTAC115.1011W
BRVr035/35.8BROOKE VORTAC114.5009W
FDKr161/(36.2)FREDERICK VOR109.0008W
EMIr191/37.3WESTMINSTER VORTAC117.9008W

 
NDB name  Hdg/Dist  Freq  Var  ID
GEORGETOWN134/5.832309WGTN --. - -.
OXONN013/6.533211WDCA -.. -.-. .-
DAVEE027/13.422309WDAA -.. .- .-
ELLICOTT216/27.337111WFND ..-. -. -..

Heliport Services

Airframe service: NONE
Powerplant service: NONE

Runway Information

Helipad H1

Dimensions: 300 x 60 ft. / 91 x 18 m
Surface: asphalt
Latitude: 38-52.456733N
Longitude: 077-01.281917W
Elevation: 15.0 ft.
Traffic pattern: leftleft

Heliport Ownership and Management from official FAA records

Ownership: Privately-owned
Owner: SPIRIT OF WASHINGTON
PIER 4 6TH & WATER STS, SW
WASHINGTON, DC 20024
Phone 202-484-2320
AND A16 - EXTENSION 646.
Manager: BILL FIRTH
PIER 4 6TH ST SW WATER ST
WASHINGTON, DC 20024
Phone 202-484-2320

Additional Remarks

SPIRIT OF BOSTON ASSOCIATION.
FOR CD CTC POTOMAC APCH AT 866-599-3874.

Instrument Procedures

There are no published instrument procedures at DC04.

Some nearby airports with instrument procedures:

KDCA - Ronald Reagan Washington National Airport (2 nm SW)
KCGS - College Park Airport (8 nm NE)
KVKX - Potomac Airfield (8 nm S)
KADW - Joint Base Andrews (8 nm SE)
W32 - Washington Executive Airport/Hyde Field (9 nm SE)
KDAA - Davison Army Airfield (12 nm SW)
W00 - Freeway Airport (12 nm E)
2W5 - Maryland Airport (17 nm S)
KFME - Tipton Airport (18 nm NE)
KGAI - Montgomery County Airpark (19 nm N)
 
Loc | Ops | Rwys | IFR | FBO | Links
Com | Nav | Svcs | Stats | Notes
Area around DC04 (Spirit of Washington Heliport)
 
Road maps at: MapQuest Bing Google
 
Aerial photo
No photo
 
Sectional chart

 
Airport distance calculator
Flying to Spirit of Washington Heliport? Find the distance to fly.

From to DC04

Sunrise and sunset
Times for 12-Nov-2019
 Local
(UTC-5)
 Zulu
(UTC)
Morning civil twilight06:2011:20
Sunrise06:4811:48
Sunset16:5621:56
Evening civil twilight17:2422:24

Current date and time
Zulu (UTC)  12-Nov-2019 16:45:02
Local (UTC-5)  12-Nov-2019 11:45:02
 
METAR
KDCA 
2nm S 
121605Z 33007KT 10SM -RA FEW026 BKN035 OVC055 04/M01 A3003 RMK AO2 P0000 T00441006
KCGS 
8nm NE 
121623Z AUTO 00000KT 10SM SCT037 OVC046 04/M01 A3001 RMK AO1 T00351011
KADW 
8nm SE 
121638Z 33014G20KT 10SM -RASN BKN015 OVC023 03/M01 A3000 RMK AO2A RASNB38 SLP167 $
KDAA 
12nm SW 
121630Z AUTO 33018G24KT 10SM -RA FEW013 05/M02 A3003 RMK AO2 RAE13RAB30 SLP172 $
KFME 
17nm NE 
121621Z AUTO 31007KT 270V340 10SM BKN043 OVC050 03/00 A3003 RMK AO1
KGAI 
19nm N 
121556Z AUTO 31012G16KT 10SM OVC065 04/M03 A3001 RMK AO2 SLP175 T00391028 PNO $
TAF
KDCA 
2nm S 
121533Z 1216/1318 33018G29KT P6SM OVC040 FM121800 33014G28KT P6SM SCT050 BKN130 FM130000 33010G20KT P6SM SCT050 FM130500 34008KT P6SM SCT050 FM131300 33008G16KT P6SM SCT200
KADW 
8nm SE 
121605Z 1216/1315 32015G25KT 6000 -RASN BKN012 OVC025 650609 651509 QNH2989INS BECMG 1218/1219 32015G25KT 9999 NSW BKN100 QNH2992INS BECMG 1303/1304 34010G20KT 9999 SCT060 QNH2995INS TX03/1216Z TNM03/1301Z
KDAA 
12nm SW 
121340Z 1213/1316 32020G25KT 9999 SCT015 OVC040 620806 520006 QNH2989INS BECMG 1213/1214 32025G35KT 9999 OVC060 520006 QNH2992INS BECMG 1218/1219 33009KT 9999 SCT035 QNH3015INS TX10/1216Z TNM02/1308Z
NOTAMs
Click for the latest NOTAMs
NOTAMs are issued by the DoD/FAA and will open in a separate window not controlled by AirNav.

 

 
 

Would you like to see your business listed on this page?

 If your business provides an interesting product or service to pilots, flight crews, aircraft, or users of the Spirit of Washington Heliport, you should consider listing it here.  To start the listing process, click on the button below
 
Add a business
 

Other Pages about Spirit of Washington Heliport

Update a link
 
Copyright © AirNav, LLC. All rights reserved. Privacy Policy  Contact